Time,TemperatureF,DewpointF,PressureIn,WindDirection,WindDirectionDegrees,WindSpeedMPH,WindSpeedGustMPH,Humidity,HourlyPrecipIn,Conditions,Clouds,dailyrainin,SolarRadiationWatts/m^2,SoftwareType,DateUTC
2013-10-31 00:21:00,47.0,38.0,-100.00,North,10,7.0,11.0,71,0.00,,,0.00,0.000000,,2013-10-31 07:21:00,
2013-10-31 00:32:00,47.0,38.0,-100.00,North,10,7.0,11.0,71,0.00,,,0.00,0.000000,,2013-10-31 07:32:00,
2013-10-31 00:42:00,47.0,38.0,-100.00,North,10,7.0,11.0,71,0.00,,,0.00,0.000000,,2013-10-31 07:42:00,
2013-10-31 00:52:00,47.0,38.0,-100.00,North,10,7.0,11.0,71,0.00,,,0.00,0.000000,,2013-10-31 07:52:00,
2013-10-31 01:22:00,46.0,37.0,-100.00,North,9,7.0,13.0,70,0.00,,,0.00,0.000000,,2013-10-31 08:22:00,
2013-10-31 01:32:00,46.0,37.0,-100.00,North,9,7.0,13.0,70,0.00,,,0.00,0.000000,,2013-10-31 08:32:00,
2013-10-31 01:42:00,46.0,37.0,-100.00,North,9,7.0,13.0,70,0.00,,,0.00,0.000000,,2013-10-31 08:42:00,
2013-10-31 01:52:00,46.0,37.0,-100.00,North,9,7.0,13.0,70,0.00,,,0.00,0.000000,,2013-10-31 08:52:00,
2013-10-31 02:21:00,44.0,35.0,-100.00,North,1,6.0,13.0,70,0.00,,,0.00,0.000000,,2013-10-31 09:21:00,
2013-10-31 02:33:00,44.0,35.0,-100.00,North,1,6.0,13.0,70,0.00,,,0.00,0.000000,,2013-10-31 09:33:00,
2013-10-31 02:43:00,44.0,35.0,-100.00,North,1,6.0,13.0,70,0.00,,,0.00,0.000000,,2013-10-31 09:43:00,
2013-10-31 02:53:00,44.0,35.0,-100.00,North,1,6.0,13.0,70,0.00,,,0.00,0.000000,,2013-10-31 09:53:00,
2013-10-31 03:23:00,43.0,34.0,-100.00,WNW,290,4.0,13.0,69,0.00,,,0.00,0.000000,,2013-10-31 10:23:00,
2013-10-31 03:33:00,43.0,34.0,-100.00,WNW,290,4.0,13.0,69,0.00,,,0.00,0.000000,,2013-10-31 10:33:00,
2013-10-31 03:42:00,43.0,34.0,-100.00,WNW,290,4.0,13.0,69,0.00,,,0.00,0.000000,,2013-10-31 10:42:00,
2013-10-31 03:53:00,43.0,34.0,-100.00,WNW,290,4.0,13.0,69,0.00,,,0.00,0.000000,,2013-10-31 10:53:00,
2013-10-31 04:21:00,44.0,34.0,-100.00,North,350,2.0,11.0,69,0.00,,,0.00,0.000000,,2013-10-31 11:21:00,
2013-10-31 04:33:00,44.0,34.0,-100.00,North,350,2.0,11.0,69,0.00,,,0.00,0.000000,,2013-10-31 11:33:00,
2013-10-31 04:42:00,44.0,34.0,-100.00,North,350,2.0,11.0,69,0.00,,,0.00,0.000000,,2013-10-31 11:42:00,
2013-10-31 04:52:00,44.0,34.0,-100.00,North,350,2.0,11.0,69,0.00,,,0.00,0.000000,,2013-10-31 11:52:00,
2013-10-31 05:21:00,44.0,34.0,-100.00,North,7,9.0,12.0,67,0.00,,,0.00,0.000000,,2013-10-31 12:21:00,
2013-10-31 05:32:00,44.0,34.0,-100.00,North,7,9.0,12.0,67,0.00,,,0.00,0.000000,,2013-10-31 12:32:00,
2013-10-31 05:42:00,44.0,34.0,-100.00,North,7,9.0,12.0,67,0.00,,,0.00,0.000000,,2013-10-31 12:42:00,
2013-10-31 05:52:00,44.0,34.0,-100.00,North,7,9.0,12.0,67,0.00,,,0.00,0.000000,,2013-10-31 12:52:00,
2013-10-31 06:22:00,42.0,33.0,-100.00,NNE,21,6.0,10.0,70,0.00,,,0.00,0.000000,,2013-10-31 13:22:00,
2013-10-31 06:32:00,42.0,33.0,-100.00,NNE,21,6.0,10.0,70,0.00,,,0.00,0.000000,,2013-10-31 13:32:00,
2013-10-31 06:42:00,42.0,33.0,-100.00,NNE,21,6.0,10.0,70,0.00,,,0.00,0.000000,,2013-10-31 13:42:00,
2013-10-31 06:52:00,42.0,33.0,-100.00,NNE,21,6.0,10.0,70,0.00,,,0.00,0.000000,,2013-10-31 13:52:00,
2013-10-31 07:21:00,43.0,31.0,-100.00,NNE,20,10.0,15.0,63,0.00,,,0.00,0.000000,,2013-10-31 14:21:00,
2013-10-31 07:32:00,43.0,31.0,-100.00,NNE,20,10.0,15.0,63,0.00,,,0.00,0.000000,,2013-10-31 14:32:00,
2013-10-31 07:42:00,43.0,31.0,-100.00,NNE,20,10.0,15.0,63,0.00,,,0.00,0.000000,,2013-10-31 14:42:00,
2013-10-31 07:52:00,43.0,31.0,-100.00,NNE,20,10.0,15.0,63,0.00,,,0.00,0.000000,,2013-10-31 14:52:00,
2013-10-31 09:22:00,48.0,31.0,-100.00,NNE,19,6.0,12.0,51,-99.99,,,-99.99,184.000000,,2013-10-31 16:22:00,
2013-10-31 09:33:00,48.0,31.0,-100.00,NNE,19,6.0,12.0,51,-99.99,,,-99.99,184.000000,,2013-10-31 16:33:00,
2013-10-31 09:43:00,48.0,31.0,-100.00,NNE,19,6.0,12.0,51,-99.99,,,-99.99,184.000000,,2013-10-31 16:43:00,
2013-10-31 09:53:00,48.0,31.0,-100.00,NNE,19,6.0,12.0,51,-99.99,,,-99.99,184.000000,,2013-10-31 16:53:00,
2013-10-31 10:22:00,49.0,34.0,-100.00,South,173,7.0,10.0,56,0.00,,,-99.99,413.000000,,2013-10-31 17:22:00,
2013-10-31 10:33:00,49.0,34.0,-100.00,South,173,7.0,10.0,56,0.00,,,-99.99,413.000000,,2013-10-31 17:33:00,
2013-10-31 10:43:00,49.0,34.0,-100.00,South,173,7.0,10.0,56,0.00,,,-99.99,413.000000,,2013-10-31 17:43:00,
2013-10-31 10:52:00,49.0,34.0,-100.00,South,173,7.0,10.0,56,0.00,,,-99.99,413.000000,,2013-10-31 17:52:00,
2013-10-31 11:21:00,57.0,34.0,-100.00,South,183,2.0,9.0,42,0.00,,,-99.99,588.000000,,2013-10-31 18:21:00,
2013-10-31 11:32:00,57.0,34.0,-100.00,South,183,2.0,9.0,42,0.00,,,-99.99,588.000000,,2013-10-31 18:32:00,
2013-10-31 11:42:00,57.0,34.0,-100.00,South,183,2.0,9.0,42,0.00,,,-99.99,588.000000,,2013-10-31 18:42:00,
2013-10-31 11:52:00,57.0,34.0,-100.00,South,183,2.0,9.0,42,0.00,,,-99.99,588.000000,,2013-10-31 18:52:00,
2013-10-31 12:21:00,62.0,31.0,-100.00,NNW,329,2.0,7.0,31,0.00,,,-99.99,710.000000,,2013-10-31 19:21:00,
2013-10-31 12:32:00,62.0,31.0,-100.00,NNW,329,2.0,7.0,31,0.00,,,-99.99,710.000000,,2013-10-31 19:32:00,
2013-10-31 12:42:00,62.0,31.0,-100.00,NNW,329,2.0,7.0,31,0.00,,,-99.99,710.000000,,2013-10-31 19:42:00,
2013-10-31 12:52:00,62.0,31.0,-100.00,NNW,329,2.0,7.0,31,0.00,,,-99.99,710.000000,,2013-10-31 19:52:00,
2013-10-31 13:22:00,70.0,29.0,-100.00,WNW,282,1.0,7.0,22,0.00,,,-99.99,766.000000,,2013-10-31 20:22:00,
2013-10-31 13:32:00,70.0,29.0,-100.00,WNW,282,1.0,7.0,22,0.00,,,-99.99,766.000000,,2013-10-31 20:32:00,
2013-10-31 13:42:00,70.0,29.0,-100.00,WNW,282,1.0,7.0,22,0.00,,,-99.99,766.000000,,2013-10-31 20:42:00,
2013-10-31 13:52:00,70.0,29.0,-100.00,WNW,282,1.0,7.0,22,0.00,,,-99.99,766.000000,,2013-10-31 20:52:00,
2013-10-31 14:21:00,70.0,22.0,-100.00,SSW,211,4.0,9.0,16,0.00,,,-99.99,749.000000,,2013-10-31 21:21:00,
2013-10-31 14:33:00,70.0,22.0,-100.00,SSW,211,4.0,9.0,16,0.00,,,-99.99,749.000000,,2013-10-31 21:33:00,
2013-10-31 14:43:00,70.0,22.0,-100.00,SSW,211,4.0,9.0,16,0.00,,,-99.99,749.000000,,2013-10-31 21:43:00,
2013-10-31 14:54:00,70.0,22.0,-100.00,SSW,211,4.0,9.0,16,0.00,,,-99.99,749.000000,,2013-10-31 21:54:00,
2013-10-31 15:24:00,73.0,23.0,-100.00,SSW,193,5.0,10.0,15,0.00,,,-99.99,662.000000,,2013-10-31 22:24:00,
2013-10-31 15:33:00,73.0,23.0,-100.00,SSW,193,5.0,10.0,15,0.00,,,-99.99,662.000000,,2013-10-31 22:33:00,
2013-10-31 15:43:00,73.0,23.0,-100.00,SSW,193,5.0,10.0,15,0.00,,,-99.99,662.000000,,2013-10-31 22:43:00,
2013-10-31 15:53:00,73.0,23.0,-100.00,SSW,193,5.0,10.0,15,0.00,,,-99.99,662.000000,,2013-10-31 22:53:00,
2013-10-31 16:22:00,72.0,20.0,-100.00,SSW,199,7.0,11.0,14,0.00,,,-99.99,515.000000,,2013-10-31 23:22:00,
2013-10-31 16:34:00,72.0,20.0,-100.00,SSW,199,7.0,11.0,14,0.00,,,-99.99,515.000000,,2013-10-31 23:34:00,
2013-10-31 17:21:00,71.0,23.0,-100.00,SSW,198,4.0,11.0,16,0.00,,,-99.99,298.000000,,2013-11-01 00:21:00,
2013-10-31 17:32:00,71.0,23.0,-100.00,SSW,198,4.0,11.0,16,0.00,,,-99.99,298.000000,,2013-11-01 00:32:00,
2013-10-31 17:42:00,71.0,23.0,-100.00,SSW,198,4.0,11.0,16,0.00,,,-99.99,298.000000,,2013-11-01 00:42:00,
2013-10-31 17:52:00,71.0,23.0,-100.00,SSW,198,4.0,11.0,16,0.00,,,-99.99,298.000000,,2013-11-01 00:52:00,
2013-10-31 18:22:00,65.0,25.0,-100.00,North,6,4.0,8.0,22,0.00,,,-99.99,24.000000,,2013-11-01 01:22:00,
2013-10-31 18:32:00,65.0,25.0,-100.00,North,6,4.0,8.0,22,0.00,,,-99.99,24.000000,,2013-11-01 01:32:00,
2013-10-31 18:42:00,65.0,25.0,-100.00,North,6,4.0,8.0,22,0.00,,,-99.99,24.000000,,2013-11-01 01:42:00,
2013-10-31 18:52:00,65.0,25.0,-100.00,North,6,4.0,8.0,22,0.00,,,-99.99,24.000000,,2013-11-01 01:52:00,
2013-10-31 19:22:00,62.0,25.0,-100.00,NE,46,7.0,9.0,24,0.00,,,-99.99,0.000000,,2013-11-01 02:22:00,
2013-10-31 19:32:00,62.0,25.0,-100.00,NE,46,7.0,9.0,24,0.00,,,-99.99,0.000000,,2013-11-01 02:32:00,
2013-10-31 19:42:00,62.0,25.0,-100.00,NE,46,7.0,9.0,24,0.00,,,-99.99,0.000000,,2013-11-01 02:42:00,
2013-10-31 19:52:00,62.0,25.0,-100.00,NE,46,7.0,9.0,24,0.00,,,-99.99,0.000000,,2013-11-01 02:52:00,
2013-10-31 20:22:00,59.0,26.0,-100.00,NNE,12,8.0,11.0,28,0.00,,,-99.99,0.000000,,2013-11-01 03:22:00,
2013-10-31 20:33:00,59.0,26.0,-100.00,NNE,12,8.0,11.0,28,0.00,,,-99.99,0.000000,,2013-11-01 03:33:00,
2013-10-31 20:44:00,59.0,26.0,-100.00,NNE,12,8.0,11.0,28,0.00,,,-99.99,0.000000,,2013-11-01 03:44:00,
2013-10-31 20:54:00,59.0,26.0,-100.00,NNE,12,8.0,11.0,28,0.00,,,-99.99,0.000000,,2013-11-01 03:54:00,
2013-10-31 21:24:00,55.0,27.0,-100.00,North,11,12.0,14.0,34,0.00,,,-99.99,0.000000,,2013-11-01 04:24:00,
2013-10-31 21:34:00,55.0,27.0,-100.00,North,11,12.0,14.0,34,0.00,,,-99.99,0.000000,,2013-11-01 04:34:00,
2013-10-31 21:43:00,55.0,27.0,-100.00,North,11,12.0,14.0,34,0.00,,,-99.99,0.000000,,2013-11-01 04:43:00,
2013-10-31 21:54:00,55.0,27.0,-100.00,North,11,12.0,14.0,34,0.00,,,-99.99,0.000000,,2013-11-01 04:54:00,
2013-10-31 22:23:00,55.0,30.0,-100.00,North,11,14.0,18.0,38,0.00,,,-99.99,0.000000,,2013-11-01 05:23:00,
2013-10-31 22:33:00,55.0,30.0,-100.00,North,11,14.0,18.0,38,0.00,,,-99.99,0.000000,,2013-11-01 05:33:00,
2013-10-31 22:42:00,55.0,30.0,-100.00,North,11,14.0,18.0,38,0.00,,,-99.99,0.000000,,2013-11-01 05:42:00,
2013-10-31 22:53:00,55.0,30.0,-100.00,North,11,14.0,18.0,38,0.00,,,-99.99,0.000000,,2013-11-01 05:53:00,
2013-10-31 23:21:00,53.0,29.0,-100.00,North,11,13.0,19.0,40,0.00,,,-99.99,0.000000,,2013-11-01 06:21:00,
2013-10-31 23:32:00,53.0,29.0,-100.00,North,11,13.0,19.0,40,0.00,,,-99.99,0.000000,,2013-11-01 06:32:00,
2013-10-31 23:42:00,53.0,29.0,-100.00,North,11,13.0,19.0,40,0.00,,,-99.99,0.000000,,2013-11-01 06:42:00,
2013-10-31 23:52:00,53.0,29.0,-100.00,North,11,13.0,19.0,40,0.00,,,-99.99,0.000000,,2013-11-01 06:52:00,